sensor_id;sensor_type;location;lat;lon;timestamp;P1;P2;P0
84428;PMS7003;74637;52.170;21.034;2023-12-20T00:02:02;29.50;22.00;14.00
84428;PMS7003;74637;52.170;21.034;2023-12-20T00:04:28;23.50;19.50;13.50
84428;PMS7003;74637;52.170;21.034;2023-12-20T00:06:55;20.67;17.00;10.00
84428;PMS7003;74637;52.170;21.034;2023-12-20T00:09:21;27.00;24.50;13.50
84428;PMS7003;74637;52.170;21.034;2023-12-20T00:11:48;23.00;22.00;13.00
84428;PMS7003;74637;52.170;21.034;2023-12-20T00:14:14;28.00;18.00;11.00
84428;PMS7003;74637;52.170;21.034;2023-12-20T00:16:41;21.00;21.00;14.00
84428;PMS7003;74637;52.170;21.034;2023-12-20T00:19:07;26.50;21.00;10.00
84428;PMS7003;74637;52.170;21.034;2023-12-20T00:21:34;24.00;17.50;11.00
84428;PMS7003;74637;52.170;21.034;2023-12-20T00:24:00;20.67;18.67;12.33
84428;PMS7003;74637;52.170;21.034;2023-12-20T00:26:27;21.00;17.00;12.00
84428;PMS7003;74637;52.170;21.034;2023-12-20T00:28:54;23.67;20.67;12.67
84428;PMS7003;74637;52.170;21.034;2023-12-20T00:31:21;17.00;15.00;8.00
84428;PMS7003;74637;52.170;21.034;2023-12-20T00:33:47;20.00;14.00;11.00
84428;PMS7003;74637;52.170;21.034;2023-12-20T00:36:14;25.00;16.50;9.50
84428;PMS7003;74637;52.170;21.034;2023-12-20T00:38:40;18.00;13.00;9.00
84428;PMS7003;74637;52.170;21.034;2023-12-20T00:41:07;21.00;15.00;10.50
84428;PMS7003;74637;52.170;21.034;2023-12-20T00:43:33;20.00;14.00;9.00
84428;PMS7003;74637;52.170;21.034;2023-12-20T00:46:00;16.50;14.50;10.00
84428;PMS7003;74637;52.170;21.034;2023-12-20T00:48:26;20.00;17.00;12.00
84428;PMS7003;74637;52.170;21.034;2023-12-20T00:50:53;20.50;16.00;10.00
84428;PMS7003;74637;52.170;21.034;2023-12-20T00:53:20;19.50;13.50;10.00
84428;PMS7003;74637;52.170;21.034;2023-12-20T00:55:46;21.00;13.50;8.00
84428;PMS7003;74637;52.170;21.034;2023-12-20T00:58:13;18.00;13.00;8.00
84428;PMS7003;74637;52.170;21.034;2023-12-20T01:00:41;21.50;17.00;11.50
84428;PMS7003;74637;52.170;21.034;2023-12-20T01:03:09;20.25;17.75;11.00
84428;PMS7003;74637;52.170;21.034;2023-12-20T01:05:36;21.00;17.00;11.00
84428;PMS7003;74637;52.170;21.034;2023-12-20T01:08:02;16.50;13.00;9.00
84428;PMS7003;74637;52.170;21.034;2023-12-20T01:10:29;20.50;17.50;12.00
84428;PMS7003;74637;52.170;21.034;2023-12-20T01:12:56;20.50;15.00;11.00
84428;PMS7003;74637;52.170;21.034;2023-12-20T01:15:22;22.50;14.00;10.00
84428;PMS7003;74637;52.170;21.034;2023-12-20T01:17:49;19.00;14.00;9.50
84428;PMS7003;74637;52.170;21.034;2023-12-20T01:20:16;17.00;12.00;8.00
84428;PMS7003;74637;52.170;21.034;2023-12-20T01:22:43;14.00;14.00;9.00
84428;PMS7003;74637;52.170;21.034;2023-12-20T01:25:12;13.00;12.00;8.00
84428;PMS7003;74637;52.170;21.034;2023-12-20T01:27:38;17.00;15.00;8.00
84428;PMS7003;74637;52.170;21.034;2023-12-20T01:30:05;16.50;12.50;8.00
84428;PMS7003;74637;52.170;21.034;2023-12-20T01:32:32;17.00;13.00;10.00
84428;PMS7003;74637;52.170;21.034;2023-12-20T01:34:59;13.00;12.00;8.00
84428;PMS7003;74637;52.170;21.034;2023-12-20T01:37:25;16.00;11.00;7.00
84428;PMS7003;74637;52.170;21.034;2023-12-20T01:39:52;19.00;14.00;12.00
84428;PMS7003;74637;52.170;21.034;2023-12-20T01:42:19;15.67;14.33;9.33
84428;PMS7003;74637;52.170;21.034;2023-12-20T01:44:45;16.00;11.00;7.67
84428;PMS7003;74637;52.170;21.034;2023-12-20T01:47:12;16.50;16.25;9.25
84428;PMS7003;74637;52.170;21.034;2023-12-20T01:49:39;16.00;11.00;8.00
84428;PMS7003;74637;52.170;21.034;2023-12-20T01:52:06;18.33;14.00;9.33
84428;PMS7003;74637;52.170;21.034;2023-12-20T01:54:33;15.00;12.00;8.00
84428;PMS7003;74637;52.170;21.034;2023-12-20T01:57:01;17.00;10.00;7.00
84428;PMS7003;74637;52.170;21.034;2023-12-20T01:59:29;17.00;12.00;8.00
84428;PMS7003;74637;52.170;21.034;2023-12-20T02:01:56;12.00;10.50;7.50
84428;PMS7003;74637;52.170;21.034;2023-12-20T02:04:23;13.00;12.50;8.00
84428;PMS7003;74637;52.170;21.034;2023-12-20T02:06:52;12.00;12.00;10.00
84428;PMS7003;74637;52.170;21.034;2023-12-20T02:09:19;13.50;12.50;9.00
84428;PMS7003;74637;52.170;21.034;2023-12-20T02:11:45;22.00;13.50;10.00
84428;PMS7003;74637;52.170;21.034;2023-12-20T02:14:12;13.50;10.50;7.50
84428;PMS7003;74637;52.170;21.034;2023-12-20T02:16:39;16.00;13.00;9.00
84428;PMS7003;74637;52.170;21.034;2023-12-20T02:19:06;17.50;11.00;7.50
84428;PMS7003;74637;52.170;21.034;2023-12-20T02:21:39;14.00;11.00;7.50
84428;PMS7003;74637;52.170;21.034;2023-12-20T02:24:06;13.00;12.67;8.00
84428;PMS7003;74637;52.170;21.034;2023-12-20T02:26:33;17.00;15.00;8.00
84428;PMS7003;74637;52.170;21.034;2023-12-20T02:29:00;15.67;11.67;8.00
84428;PMS7003;74637;52.170;21.034;2023-12-20T02:31:27;16.00;11.50;7.00
84428;PMS7003;74637;52.170;21.034;2023-12-20T02:33:54;18.50;11.00;8.50
84428;PMS7003;74637;52.170;21.034;2023-12-20T02:36:20;19.00;13.00;9.00
84428;PMS7003;74637;52.170;21.034;2023-12-20T02:38:47;12.00;10.00;6.00
84428;PMS7003;74637;52.170;21.034;2023-12-20T02:41:14;11.00;11.00;7.00
84428;PMS7003;74637;52.170;21.034;2023-12-20T02:43:43;15.00;8.50;5.50
84428;PMS7003;74637;52.170;21.034;2023-12-20T02:46:10;17.00;12.00;8.00
84428;PMS7003;74637;52.170;21.034;2023-12-20T02:48:37;12.00;8.00;6.00
84428;PMS7003;74637;52.170;21.034;2023-12-20T02:51:04;8.00;7.50;7.00
84428;PMS7003;74637;52.170;21.034;2023-12-20T02:53:30;14.67;11.00;7.00
84428;PMS7003;74637;52.170;21.034;2023-12-20T02:55:57;20.50;12.00;7.00
84428;PMS7003;74637;52.170;21.034;2023-12-20T02:58:24;10.00;8.00;7.00
84428;PMS7003;74637;52.170;21.034;2023-12-20T03:00:51;10.00;10.00;7.00
84428;PMS7003;74637;52.170;21.034;2023-12-20T03:03:17;10.00;9.00;7.00
84428;PMS7003;74637;52.170;21.034;2023-12-20T03:05:44;12.00;10.00;6.00
84428;PMS7003;74637;52.170;21.034;2023-12-20T03:08:12;13.00;7.00;6.00
84428;PMS7003;74637;52.170;21.034;2023-12-20T03:10:38;8.67;7.67;5.33
84428;PMS7003;74637;52.170;21.034;2023-12-20T03:13:05;11.00;9.33;7.33
84428;PMS7003;74637;52.170;21.034;2023-12-20T03:15:31;11.00;8.00;4.00
84428;PMS7003;74637;52.170;21.034;2023-12-20T03:17:58;11.50;7.00;4.00
84428;PMS7003;74637;52.170;21.034;2023-12-20T03:20:25;9.50;9.50;6.00
84428;PMS7003;74637;52.170;21.034;2023-12-20T03:22:52;12.00;6.00;6.00
84428;PMS7003;74637;52.170;21.034;2023-12-20T03:25:19;6.00;5.50;3.00
84428;PMS7003;74637;52.170;21.034;2023-12-20T03:27:45;7.50;7.50;4.00
84428;PMS7003;74637;52.170;21.034;2023-12-20T03:30:12;9.00;7.00;4.00
84428;PMS7003;74637;52.170;21.034;2023-12-20T03:32:38;9.50;7.00;5.50
84428;PMS7003;74637;52.170;21.034;2023-12-20T03:35:05;15.00;10.00;6.00
84428;PMS7003;74637;52.170;21.034;2023-12-20T03:37:32;7.00;4.00;3.00
84428;PMS7003;74637;52.170;21.034;2023-12-20T03:39:59;9.00;6.50;6.00
84428;PMS7003;74637;52.170;21.034;2023-12-20T03:42:25;8.00;6.00;5.00
84428;PMS7003;74637;52.170;21.034;2023-12-20T03:44:52;9.50;5.50;3.00
84428;PMS7003;74637;52.170;21.034;2023-12-20T03:47:18;7.00;7.00;6.00
84428;PMS7003;74637;52.170;21.034;2023-12-20T03:49:45;11.00;7.00;5.00
84428;PMS7003;74637;52.170;21.034;2023-12-20T03:52:11;10.00;8.00;6.00
84428;PMS7003;74637;52.170;21.034;2023-12-20T03:54:38;6.00;6.00;4.00
84428;PMS7003;74637;52.170;21.034;2023-12-20T03:57:05;8.50;6.50;5.00
84428;PMS7003;74637;52.170;21.034;2023-12-20T03:59:34;6.00;6.00;3.00
84428;PMS7003;74637;52.170;21.034;2023-12-20T04:02:02;7.50;6.50;4.00
84428;PMS7003;74637;52.170;21.034;2023-12-20T04:04:30;10.67;7.00;5.67
84428;PMS7003;74637;52.170;21.034;2023-12-20T04:06:56;12.00;9.00;6.00
84428;PMS7003;74637;52.170;21.034;2023-12-20T04:09:23;10.00;7.00;5.00
84428;PMS7003;74637;52.170;21.034;2023-12-20T04:11:49;7.00;7.00;5.00
84428;PMS7003;74637;52.170;21.034;2023-12-20T04:14:16;8.00;7.00;5.00
84428;PMS7003;74637;52.170;21.034;2023-12-20T04:16:42;9.00;6.00;5.00
84428;PMS7003;74637;52.170;21.034;2023-12-20T04:19:09;8.50;8.50;4.00
84428;PMS7003;74637;52.170;21.034;2023-12-20T04:21:35;7.00;7.00;5.50
84428;PMS7003;74637;52.170;21.034;2023-12-20T04:24:02;7.00;6.00;3.00
84428;PMS7003;74637;52.170;21.034;2023-12-20T04:26:28;11.00;8.00;6.50
84428;PMS7003;74637;52.170;21.034;2023-12-20T04:28:55;8.00;8.00;6.00
84428;PMS7003;74637;52.170;21.034;2023-12-20T04:31:22;10.00;8.50;6.00
84428;PMS7003;74637;52.170;21.034;2023-12-20T04:33:48;7.67;6.00;3.00
84428;PMS7003;74637;52.170;21.034;2023-12-20T04:36:15;6.00;6.00;4.33
84428;PMS7003;74637;52.170;21.034;2023-12-20T04:38:42;5.50;5.50;3.00
84428;PMS7003;74637;52.170;21.034;2023-12-20T04:41:08;8.00;8.00;7.00
84428;PMS7003;74637;52.170;21.034;2023-12-20T04:43:35;11.00;7.00;6.00
84428;PMS7003;74637;52.170;21.034;2023-12-20T04:46:01;11.00;7.00;6.00
84428;PMS7003;74637;52.170;21.034;2023-12-20T04:48:28;7.50;6.00;4.00
84428;PMS7003;74637;52.170;21.034;2023-12-20T04:50:54;7.67;7.67;5.33
84428;PMS7003;74637;52.170;21.034;2023-12-20T04:53:21;9.00;6.00;4.00
84428;PMS7003;74637;52.170;21.034;2023-12-20T04:55:47;10.00;8.00;5.00
84428;PMS7003;74637;52.170;21.034;2023-12-20T04:58:14;10.00;8.00;6.00
84428;PMS7003;74637;52.170;21.034;2023-12-20T05:00:40;13.00;7.00;6.00
84428;PMS7003;74637;52.170;21.034;2023-12-20T05:03:07;12.00;8.00;4.00
84428;PMS7003;74637;52.170;21.034;2023-12-20T05:05:33;11.00;7.00;5.00
84428;PMS7003;74637;52.170;21.034;2023-12-20T05:08:00;12.33;6.67;5.33
84428;PMS7003;74637;52.170;21.034;2023-12-20T05:10:27;14.00;12.00;7.00
84428;PMS7003;74637;52.170;21.034;2023-12-20T05:12:54;10.50;8.50;6.00
84428;PMS7003;74637;52.170;21.034;2023-12-20T05:15:20;13.00;7.00;6.00
84428;PMS7003;74637;52.170;21.034;2023-12-20T05:17:47;8.00;8.00;6.00
84428;PMS7003;74637;52.170;21.034;2023-12-20T05:20:13;10.50;7.00;5.00
84428;PMS7003;74637;52.170;21.034;2023-12-20T05:22:40;13.00;11.50;6.00
84428;PMS7003;74637;52.170;21.034;2023-12-20T05:25:07;8.00;8.00;6.00
84428;PMS7003;74637;52.170;21.034;2023-12-20T05:27:34;11.00;7.50;5.50
84428;PMS7003;74637;52.170;21.034;2023-12-20T05:30:00;10.33;7.67;5.00
84428;PMS7003;74637;52.170;21.034;2023-12-20T05:32:27;11.00;6.67;5.00
84428;PMS7003;74637;52.170;21.034;2023-12-20T05:34:54;8.00;8.00;6.00
84428;PMS7003;74637;52.170;21.034;2023-12-20T05:37:20;10.00;8.00;5.00
84428;PMS7003;74637;52.170;21.034;2023-12-20T05:39:47;11.00;10.00;7.00
84428;PMS7003;74637;52.170;21.034;2023-12-20T05:42:13;9.00;9.00;6.00
84428;PMS7003;74637;52.170;21.034;2023-12-20T05:44:40;12.00;10.00;6.00
84428;PMS7003;74637;52.170;21.034;2023-12-20T05:47:06;11.00;11.00;6.00
84428;PMS7003;74637;52.170;21.034;2023-12-20T05:49:33;15.00;10.00;6.00
84428;PMS7003;74637;52.170;21.034;2023-12-20T05:51:59;10.75;7.00;5.25
84428;PMS7003;74637;52.170;21.034;2023-12-20T05:54:26;11.00;10.00;6.00
84428;PMS7003;74637;52.170;21.034;2023-12-20T05:56:52;7.50;6.00;5.00
84428;PMS7003;74637;52.170;21.034;2023-12-20T05:59:19;10.33;9.33;5.67
84428;PMS7003;74637;52.170;21.034;2023-12-20T06:01:45;17.00;11.00;7.00
84428;PMS7003;74637;52.170;21.034;2023-12-20T06:04:12;12.00;9.50;7.00
84428;PMS7003;74637;52.170;21.034;2023-12-20T06:06:40;7.00;6.50;5.50
84428;PMS7003;74637;52.170;21.034;2023-12-20T06:09:08;8.67;8.00;5.33
84428;PMS7003;74637;52.170;21.034;2023-12-20T06:11:34;11.00;7.00;4.50
84428;PMS7003;74637;52.170;21.034;2023-12-20T06:14:01;8.50;8.50;6.00
84428;PMS7003;74637;52.170;21.034;2023-12-20T06:16:28;8.50;6.75;4.25
84428;PMS7003;74637;52.170;21.034;2023-12-20T06:18:54;7.00;5.00;3.00
84428;PMS7003;74637;52.170;21.034;2023-12-20T06:23:47;9.00;7.00;4.00
84428;PMS7003;74637;52.170;21.034;2023-12-20T06:26:14;13.00;9.00;6.00
84428;PMS7003;74637;52.170;21.034;2023-12-20T06:28:40;7.33;6.00;4.33
84428;PMS7003;74637;52.170;21.034;2023-12-20T06:31:06;10.00;8.33;5.67
84428;PMS7003;74637;52.170;21.034;2023-12-20T06:33:35;14.50;11.00;7.00
84428;PMS7003;74637;52.170;21.034;2023-12-20T06:36:02;11.00;7.00;5.00
84428;PMS7003;74637;52.170;21.034;2023-12-20T06:38:29;9.67;4.67;3.00
84428;PMS7003;74637;52.170;21.034;2023-12-20T06:40:56;6.50;3.00;2.50
84428;PMS7003;74637;52.170;21.034;2023-12-20T06:43:24;8.00;7.00;5.00
84428;PMS7003;74637;52.170;21.034;2023-12-20T06:45:51;11.50;7.00;5.50
84428;PMS7003;74637;52.170;21.034;2023-12-20T06:48:17;7.00;7.00;5.00
84428;PMS7003;74637;52.170;21.034;2023-12-20T06:50:44;12.33;8.00;5.00
84428;PMS7003;74637;52.170;21.034;2023-12-20T06:53:11;13.00;7.00;5.00
84428;PMS7003;74637;52.170;21.034;2023-12-20T06:55:37;6.00;5.00;3.00
84428;PMS7003;74637;52.170;21.034;2023-12-20T06:58:04;5.00;5.00;3.00
84428;PMS7003;74637;52.170;21.034;2023-12-20T07:02:58;10.00;8.00;5.00
84428;PMS7003;74637;52.170;21.034;2023-12-20T07:05:25;12.00;11.00;7.00
84428;PMS7003;74637;52.170;21.034;2023-12-20T07:07:53;8.00;7.00;6.00
84428;PMS7003;74637;52.170;21.034;2023-12-20T07:10:19;7.00;7.00;3.67
84428;PMS7003;74637;52.170;21.034;2023-12-20T07:12:46;9.75;8.00;6.00
84428;PMS7003;74637;52.170;21.034;2023-12-20T07:15:15;12.50;8.00;5.50
84428;PMS7003;74637;52.170;21.034;2023-12-20T07:17:41;11.00;6.00;3.00
84428;PMS7003;74637;52.170;21.034;2023-12-20T07:20:09;11.00;7.00;6.00
84428;PMS7003;74637;52.170;21.034;2023-12-20T07:22:37;8.33;6.67;5.33
84428;PMS7003;74637;52.170;21.034;2023-12-20T07:25:03;10.50;7.00;5.00
84428;PMS7003;74637;52.170;21.034;2023-12-20T07:27:30;6.50;6.50;4.00
84428;PMS7003;74637;52.170;21.034;2023-12-20T07:29:57;16.00;11.00;7.00
84428;PMS7003;74637;52.170;21.034;2023-12-20T07:32:24;13.50;7.00;5.00
84428;PMS7003;74637;52.170;21.034;2023-12-20T07:34:50;10.00;10.00;6.00
84428;PMS7003;74637;52.170;21.034;2023-12-20T07:37:17;12.50;9.00;6.00
84428;PMS7003;74637;52.170;21.034;2023-12-20T07:39:43;15.00;8.00;6.50
84428;PMS7003;74637;52.170;21.034;2023-12-20T07:42:10;12.33;9.33;6.00
84428;PMS7003;74637;52.170;21.034;2023-12-20T07:44:37;11.00;11.00;7.00
84428;PMS7003;74637;52.170;21.034;2023-12-20T07:47:04;10.25;7.00;4.25
84428;PMS7003;74637;52.170;21.034;2023-12-20T07:49:31;11.00;8.00;6.00
84428;PMS7003;74637;52.170;21.034;2023-12-20T07:51:58;12.50;11.25;7.25
84428;PMS7003;74637;52.170;21.034;2023-12-20T07:54:24;10.00;8.00;7.00
84428;PMS7003;74637;52.170;21.034;2023-12-20T07:56:51;9.00;7.50;5.00
84428;PMS7003;74637;52.170;21.034;2023-12-20T07:59:18;14.50;8.00;5.00
84428;PMS7003;74637;52.170;21.034;2023-12-20T08:01:45;11.50;9.50;6.00
84428;PMS7003;74637;52.170;21.034;2023-12-20T08:04:11;12.00;10.67;5.00
84428;PMS7003;74637;52.170;21.034;2023-12-20T08:06:38;6.67;6.00;5.00
84428;PMS7003;74637;52.170;21.034;2023-12-20T08:09:05;12.00;10.00;5.00
84428;PMS7003;74637;52.170;21.034;2023-12-20T08:11:31;10.50;6.50;5.00
84428;PMS7003;74637;52.170;21.034;2023-12-20T08:13:58;13.00;8.00;4.00
84428;PMS7003;74637;52.170;21.034;2023-12-20T08:16:24;10.50;7.00;4.50
84428;PMS7003;74637;52.170;21.034;2023-12-20T08:18:51;7.50;7.00;4.00
84428;PMS7003;74637;52.170;21.034;2023-12-20T08:21:18;12.00;6.00;4.00
84428;PMS7003;74637;52.170;21.034;2023-12-20T08:23:46;10.00;8.00;5.00
84428;PMS7003;74637;52.170;21.034;2023-12-20T08:26:13;14.00;8.00;6.00
84428;PMS7003;74637;52.170;21.034;2023-12-20T08:28:40;17.00;7.00;6.00
84428;PMS7003;74637;52.170;21.034;2023-12-20T08:31:13;11.00;6.00;3.00
84428;PMS7003;74637;52.170;21.034;2023-12-20T08:33:40;10.00;7.00;3.00
84428;PMS7003;74637;52.170;21.034;2023-12-20T08:36:06;9.00;6.00;5.00
84428;PMS7003;74637;52.170;21.034;2023-12-20T08:38:33;7.00;7.00;5.00
84428;PMS7003;74637;52.170;21.034;2023-12-20T08:40:59;10.00;6.00;3.00
84428;PMS7003;74637;52.170;21.034;2023-12-20T08:43:27;11.00;6.00;3.00
84428;PMS7003;74637;52.170;21.034;2023-12-20T08:45:54;6.00;5.00;3.00
84428;PMS7003;74637;52.170;21.034;2023-12-20T08:48:20;5.00;4.33;2.33
84428;PMS7003;74637;52.170;21.034;2023-12-20T08:50:47;12.00;7.00;6.00
84428;PMS7003;74637;52.170;21.034;2023-12-20T08:53:15;10.00;6.50;3.00
84428;PMS7003;74637;52.170;21.034;2023-12-20T08:55:43;3.00;3.00;2.00
84428;PMS7003;74637;52.170;21.034;2023-12-20T08:58:09;5.00;5.00;2.00
84428;PMS7003;74637;52.170;21.034;2023-12-20T09:00:36;6.00;6.00;3.00
84428;PMS7003;74637;52.170;21.034;2023-12-20T09:03:03;7.00;3.00;2.00
84428;PMS7003;74637;52.170;21.034;2023-12-20T09:05:30;7.00;7.00;3.75
84428;PMS7003;74637;52.170;21.034;2023-12-20T09:07:56;8.50;7.00;4.00
84428;PMS7003;74637;52.170;21.034;2023-12-20T09:10:23;7.00;6.00;4.00
84428;PMS7003;74637;52.170;21.034;2023-12-20T09:12:50;7.50;6.50;3.00
84428;PMS7003;74637;52.170;21.034;2023-12-20T09:15:18;13.25;7.75;6.00
84428;PMS7003;74637;52.170;21.034;2023-12-20T09:17:44;9.50;6.50;3.00
84428;PMS7003;74637;52.170;21.034;2023-12-20T09:20:11;10.00;6.00;3.00
84428;PMS7003;74637;52.170;21.034;2023-12-20T09:22:39;6.00;3.00;2.00
84428;PMS7003;74637;52.170;21.034;2023-12-20T09:25:09;8.00;6.00;5.00
84428;PMS7003;74637;52.170;21.034;2023-12-20T09:27:36;8.00;8.00;4.50
84428;PMS7003;74637;52.170;21.034;2023-12-20T09:30:03;10.50;9.00;5.50
84428;PMS7003;74637;52.170;21.034;2023-12-20T09:32:31;4.00;4.00;3.00
84428;PMS7003;74637;52.170;21.034;2023-12-20T09:34:58;8.67;5.00;3.67
84428;PMS7003;74637;52.170;21.034;2023-12-20T09:37:26;9.00;7.00;4.00
84428;PMS7003;74637;52.170;21.034;2023-12-20T09:39:54;8.00;7.00;5.00
84428;PMS7003;74637;52.170;21.034;2023-12-20T09:42:43;10.67;5.67;2.67
84428;PMS7003;74637;52.170;21.034;2023-12-20T09:45:17;6.00;5.50;4.00
84428;PMS7003;74637;52.170;21.034;2023-12-20T09:47:57;7.00;4.50;3.00
84428;PMS7003;74637;52.170;21.034;2023-12-20T09:50:24;10.00;7.00;5.50
84428;PMS7003;74637;52.170;21.034;2023-12-20T09:52:52;5.67;5.67;3.33
84428;PMS7003;74637;52.170;21.034;2023-12-20T09:55:20;3.00;3.00;2.00
84428;PMS7003;74637;52.170;21.034;2023-12-20T09:57:47;11.67;7.33;5.33
84428;PMS7003;74637;52.170;21.034;2023-12-20T10:00:15;6.67;6.33;5.33
84428;PMS7003;74637;52.170;21.034;2023-12-20T10:02:50;12.00;6.00;5.00
84428;PMS7003;74637;52.170;21.034;2023-12-20T10:05:29;8.50;6.00;4.00
84428;PMS7003;74637;52.170;21.034;2023-12-20T10:07:57;7.00;6.00;3.00
84428;PMS7003;74637;52.170;21.034;2023-12-20T10:10:25;6.33;5.33;2.67
84428;PMS7003;74637;52.170;21.034;2023-12-20T10:13:02;8.33;6.00;3.67
84428;PMS7003;74637;52.170;21.034;2023-12-20T10:15:37;6.00;6.00;3.00
84428;PMS7003;74637;52.170;21.034;2023-12-20T10:18:04;6.50;5.50;4.00
84428;PMS7003;74637;52.170;21.034;2023-12-20T10:20:31;5.50;4.00;2.00
84428;PMS7003;74637;52.170;21.034;2023-12-20T10:22:59;9.00;6.00;5.00
84428;PMS7003;74637;52.170;21.034;2023-12-20T10:25:27;10.00;7.00;3.00
84428;PMS7003;74637;52.170;21.034;2023-12-20T10:30:41;3.00;3.00;2.00
84428;PMS7003;74637;52.170;21.034;2023-12-20T10:33:08;8.00;6.00;5.00
84428;PMS7003;74637;52.170;21.034;2023-12-20T10:35:36;10.00;6.00;2.00
84428;PMS7003;74637;52.170;21.034;2023-12-20T10:38:04;3.00;3.00;3.00
84428;PMS7003;74637;52.170;21.034;2023-12-20T10:40:35;6.50;3.00;2.00
84428;PMS7003;74637;52.170;21.034;2023-12-20T10:43:05;3.00;3.00;2.00
84428;PMS7003;74637;52.170;21.034;2023-12-20T10:45:32;7.00;4.33;2.33
84428;PMS7003;74637;52.170;21.034;2023-12-20T10:48:00;5.00;5.00;3.00
84428;PMS7003;74637;52.170;21.034;2023-12-20T10:50:28;7.00;4.00;3.00
84428;PMS7003;74637;52.170;21.034;2023-12-20T10:52:56;3.00;3.00;2.00
84428;PMS7003;74637;52.170;21.034;2023-12-20T10:55:24;5.67;2.00;1.00
84428;PMS7003;74637;52.170;21.034;2023-12-20T10:57:52;5.33;3.00;3.00
84428;PMS7003;74637;52.170;21.034;2023-12-20T11:00:20;11.33;6.67;5.33
84428;PMS7003;74637;52.170;21.034;2023-12-20T11:02:49;3.00;3.00;2.00
84428;PMS7003;74637;52.170;21.034;2023-12-20T11:08:01;7.00;7.00;4.00
84428;PMS7003;74637;52.170;21.034;2023-12-20T11:10:39;11.50;9.00;5.00
84428;PMS7003;74637;52.170;21.034;2023-12-20T11:13:12;7.00;7.00;3.00
84428;PMS7003;74637;52.170;21.034;2023-12-20T11:15:46;5.50;3.00;2.00
84428;PMS7003;74637;52.170;21.034;2023-12-20T11:18:13;11.25;8.00;4.50
84428;PMS7003;74637;52.170;21.034;2023-12-20T11:20:41;10.00;6.00;3.00
84428;PMS7003;74637;52.170;21.034;2023-12-20T11:23:08;11.00;6.00;4.00
84428;PMS7003;74637;52.170;21.034;2023-12-20T11:28:34;5.00;5.00;3.00
84428;PMS7003;74637;52.170;21.034;2023-12-20T11:31:01;10.00;6.00;3.00
84428;PMS7003;74637;52.170;21.034;2023-12-20T11:33:30;6.50;6.50;3.00
84428;PMS7003;74637;52.170;21.034;2023-12-20T11:36:16;11.00;8.00;4.00
84428;PMS7003;74637;52.170;21.034;2023-12-20T11:38:57;14.00;6.50;3.00
84428;PMS7003;74637;52.170;21.034;2023-12-20T11:41:24;11.67;6.00;5.00
84428;PMS7003;74637;52.170;21.034;2023-12-20T11:43:55;9.50;6.50;5.50
84428;PMS7003;74637;52.170;21.034;2023-12-20T11:46:22;5.00;5.00;3.00
84428;PMS7003;74637;52.170;21.034;2023-12-20T11:48:49;6.00;4.00;3.67
84428;PMS7003;74637;52.170;21.034;2023-12-20T11:51:17;10.00;8.00;5.00
84428;PMS7003;74637;52.170;21.034;2023-12-20T11:53:43;7.00;7.00;6.00
84428;PMS7003;74637;52.170;21.034;2023-12-20T11:56:10;5.00;5.00;3.00
84428;PMS7003;74637;52.170;21.034;2023-12-20T11:58:37;11.00;6.00;3.00
84428;PMS7003;74637;52.170;21.034;2023-12-20T12:01:04;7.00;7.00;5.00
84428;PMS7003;74637;52.170;21.034;2023-12-20T12:03:33;11.50;7.00;4.00
84428;PMS7003;74637;52.170;21.034;2023-12-20T12:06:00;7.50;7.50;5.00
84428;PMS7003;74637;52.170;21.034;2023-12-20T12:08:30;9.00;7.50;5.00
84428;PMS7003;74637;52.170;21.034;2023-12-20T12:10:57;6.50;6.50;3.50
84428;PMS7003;74637;52.170;21.034;2023-12-20T12:13:23;12.00;7.00;5.00
84428;PMS7003;74637;52.170;21.034;2023-12-20T12:15:53;14.00;7.00;4.00
84428;PMS7003;74637;52.170;21.034;2023-12-20T12:18:20;9.00;8.00;6.00
84428;PMS7003;74637;52.170;21.034;2023-12-20T12:20:47;10.67;7.33;4.33
84428;PMS7003;74637;52.170;21.034;2023-12-20T12:23:13;7.50;7.50;6.00
84428;PMS7003;74637;52.170;21.034;2023-12-20T12:25:40;10.50;6.50;4.00
84428;PMS7003;74637;52.170;21.034;2023-12-20T12:28:07;10.00;6.00;5.00
84428;PMS7003;74637;52.170;21.034;2023-12-20T12:30:34;7.00;6.50;5.00
84428;PMS7003;74637;52.170;21.034;2023-12-20T12:33:00;6.00;5.50;3.00
84428;PMS7003;74637;52.170;21.034;2023-12-20T12:35:27;6.00;6.00;5.00
84428;PMS7003;74637;52.170;21.034;2023-12-20T12:37:54;8.00;6.50;5.00
84428;PMS7003;74637;52.170;21.034;2023-12-20T12:40:20;8.00;3.00;2.00
84428;PMS7003;74637;52.170;21.034;2023-12-20T12:42:47;6.00;5.00;3.00
84428;PMS7003;74637;52.170;21.034;2023-12-20T12:45:14;13.00;5.00;3.00
84428;PMS7003;74637;52.170;21.034;2023-12-20T12:47:40;10.00;10.00;6.00
84428;PMS7003;74637;52.170;21.034;2023-12-20T12:50:07;12.00;6.50;3.00
84428;PMS7003;74637;52.170;21.034;2023-12-20T12:52:34;10.00;6.00;5.00
84428;PMS7003;74637;52.170;21.034;2023-12-20T12:55:01;7.00;6.00;3.00
84428;PMS7003;74637;52.170;21.034;2023-12-20T12:57:29;15.00;9.00;6.00
84428;PMS7003;74637;52.170;21.034;2023-12-20T12:59:56;14.00;10.00;5.00
84428;PMS7003;74637;52.170;21.034;2023-12-20T13:02:24;12.00;10.33;6.33
84428;PMS7003;74637;52.170;21.034;2023-12-20T13:04:51;11.00;8.00;6.00
84428;PMS7003;74637;52.170;21.034;2023-12-20T13:07:17;10.00;8.00;6.00
84428;PMS7003;74637;52.170;21.034;2023-12-20T13:09:44;9.00;6.50;5.50
84428;PMS7003;74637;52.170;21.034;2023-12-20T13:12:10;12.67;7.00;5.00
84428;PMS7003;74637;52.170;21.034;2023-12-20T13:14:37;10.50;8.00;5.50
84428;PMS7003;74637;52.170;21.034;2023-12-20T13:17:03;10.00;9.00;5.50
84428;PMS7003;74637;52.170;21.034;2023-12-20T13:19:30;13.33;10.67;6.33
84428;PMS7003;74637;52.170;21.034;2023-12-20T13:21:57;13.67;9.67;6.67
84428;PMS7003;74637;52.170;21.034;2023-12-20T13:24:24;9.00;9.00;5.50
84428;PMS7003;74637;52.170;21.034;2023-12-20T13:26:51;9.33;6.33;5.00
84428;PMS7003;74637;52.170;21.034;2023-12-20T13:29:17;8.50;8.50;5.00
84428;PMS7003;74637;52.170;21.034;2023-12-20T13:31:44;14.00;10.00;6.00
84428;PMS7003;74637;52.170;21.034;2023-12-20T13:34:10;13.00;12.00;7.00
84428;PMS7003;74637;52.170;21.034;2023-12-20T13:36:37;15.00;8.00;5.50
84428;PMS7003;74637;52.170;21.034;2023-12-20T13:39:04;12.00;10.00;7.00
84428;PMS7003;74637;52.170;21.034;2023-12-20T13:41:31;10.00;8.00;5.00
84428;PMS7003;74637;52.170;21.034;2023-12-20T13:43:58;13.50;7.00;3.00
84428;PMS7003;74637;52.170;21.034;2023-12-20T13:46:24;7.00;6.00;5.00
84428;PMS7003;74637;52.170;21.034;2023-12-20T13:48:51;12.67;7.67;5.33
84428;PMS7003;74637;52.170;21.034;2023-12-20T13:51:17;11.67;11.00;6.00
84428;PMS7003;74637;52.170;21.034;2023-12-20T13:53:44;8.00;7.00;5.00
84428;PMS7003;74637;52.170;21.034;2023-12-20T13:56:10;16.00;12.00;6.00
84428;PMS7003;74637;52.170;21.034;2023-12-20T13:58:37;15.00;7.00;5.00
84428;PMS7003;74637;52.170;21.034;2023-12-20T14:01:04;15.00;9.00;6.00
84428;PMS7003;74637;52.170;21.034;2023-12-20T14:03:30;10.00;6.00;5.00
84428;PMS7003;74637;52.170;21.034;2023-12-20T14:05:57;11.50;7.00;5.50
84428;PMS7003;74637;52.170;21.034;2023-12-20T14:08:24;20.25;9.00;5.75
84428;PMS7003;74637;52.170;21.034;2023-12-20T14:10:50;13.50;8.00;5.50
84428;PMS7003;74637;52.170;21.034;2023-12-20T14:13:17;11.00;11.00;7.00